sensor_id;sensor_type;location;lat;lon;timestamp;temperature;humidity
67586;SHT31;55785;47.946;20.540;2024-03-08T00:01:04;5.39;77.06
67586;SHT31;55785;47.946;20.540;2024-03-08T00:03:29;5.31;76.79
67586;SHT31;55785;47.946;20.540;2024-03-08T00:05:54;5.31;77.41
67586;SHT31;55785;47.946;20.540;2024-03-08T00:08:20;5.27;77.14
67586;SHT31;55785;47.946;20.540;2024-03-08T00:10:45;5.20;77.25
67586;SHT31;55785;47.946;20.540;2024-03-08T00:13:10;5.24;78.19
67586;SHT31;55785;47.946;20.540;2024-03-08T00:15:36;5.14;77.62
67586;SHT31;55785;47.946;20.540;2024-03-08T00:18:01;5.14;77.21
67586;SHT31;55785;47.946;20.540;2024-03-08T00:20:26;5.17;77.42
67586;SHT31;55785;47.946;20.540;2024-03-08T00:22:52;5.18;77.20
67586;SHT31;55785;47.946;20.540;2024-03-08T00:25:17;5.17;76.80
67586;SHT31;55785;47.946;20.540;2024-03-08T00:27:43;5.17;77.71
67586;SHT31;55785;47.946;20.540;2024-03-08T00:30:08;5.15;77.68
67586;SHT31;55785;47.946;20.540;2024-03-08T00:32:34;5.14;77.00
67586;SHT31;55785;47.946;20.540;2024-03-08T00:35:00;5.14;76.25
67586;SHT31;55785;47.946;20.540;2024-03-08T00:37:25;5.14;76.51
67586;SHT31;55785;47.946;20.540;2024-03-08T00:39:51;5.18;76.36
67586;SHT31;55785;47.946;20.540;2024-03-08T00:42:17;5.20;76.38
67586;SHT31;55785;47.946;20.540;2024-03-08T00:44:43;5.20;75.92
67586;SHT31;55785;47.946;20.540;2024-03-08T00:47:08;5.24;76.55
67586;SHT31;55785;47.946;20.540;2024-03-08T00:49:34;5.28;76.91
67586;SHT31;55785;47.946;20.540;2024-03-08T00:51:59;5.31;76.98
67586;SHT31;55785;47.946;20.540;2024-03-08T00:54:24;5.31;76.17
67586;SHT31;55785;47.946;20.540;2024-03-08T00:56:50;5.25;76.72
67586;SHT31;55785;47.946;20.540;2024-03-08T00:59:15;5.25;76.54
67586;SHT31;55785;47.946;20.540;2024-03-08T01:01:41;5.24;76.20
67586;SHT31;55785;47.946;20.540;2024-03-08T01:04:06;5.23;76.31
67586;SHT31;55785;47.946;20.540;2024-03-08T01:06:31;5.24;76.89
67586;SHT31;55785;47.946;20.540;2024-03-08T01:08:57;5.28;76.70
67586;SHT31;55785;47.946;20.540;2024-03-08T01:11:22;5.25;76.19
67586;SHT31;55785;47.946;20.540;2024-03-08T01:13:47;5.31;76.92
67586;SHT31;55785;47.946;20.540;2024-03-08T01:16:13;5.25;76.62
67586;SHT31;55785;47.946;20.540;2024-03-08T01:18:38;5.28;76.66
67586;SHT31;55785;47.946;20.540;2024-03-08T01:21:04;5.28;76.71
67586;SHT31;55785;47.946;20.540;2024-03-08T01:23:29;5.30;76.08
67586;SHT31;55785;47.946;20.540;2024-03-08T01:25:55;5.28;76.13
67586;SHT31;55785;47.946;20.540;2024-03-08T01:28:20;5.24;74.88
67586;SHT31;55785;47.946;20.540;2024-03-08T01:30:46;5.21;75.14
67586;SHT31;55785;47.946;20.540;2024-03-08T01:33:11;5.25;75.64
67586;SHT31;55785;47.946;20.540;2024-03-08T01:35:36;5.17;75.30
67586;SHT31;55785;47.946;20.540;2024-03-08T01:38:02;5.18;75.00
67586;SHT31;55785;47.946;20.540;2024-03-08T01:40:27;5.20;75.54
67586;SHT31;55785;47.946;20.540;2024-03-08T01:42:52;5.20;75.27
67586;SHT31;55785;47.946;20.540;2024-03-08T01:45:18;5.17;75.44
67586;SHT31;55785;47.946;20.540;2024-03-08T01:47:43;5.13;75.18
67586;SHT31;55785;47.946;20.540;2024-03-08T01:50:09;5.14;75.22
67586;SHT31;55785;47.946;20.540;2024-03-08T01:52:34;5.15;74.95
67586;SHT31;55785;47.946;20.540;2024-03-08T01:55:01;5.17;74.58
67586;SHT31;55785;47.946;20.540;2024-03-08T01:57:28;5.18;75.69
67586;SHT31;55785;47.946;20.540;2024-03-08T01:59:55;5.15;74.91
67586;SHT31;55785;47.946;20.540;2024-03-08T02:02:21;5.11;74.81
67586;SHT31;55785;47.946;20.540;2024-03-08T02:04:47;5.14;75.56
67586;SHT31;55785;47.946;20.540;2024-03-08T02:07:12;5.14;75.31
67586;SHT31;55785;47.946;20.540;2024-03-08T02:09:37;5.11;75.00
67586;SHT31;55785;47.946;20.540;2024-03-08T02:12:03;5.14;75.04
67586;SHT31;55785;47.946;20.540;2024-03-08T02:14:28;5.13;75.35
67586;SHT31;55785;47.946;20.540;2024-03-08T02:16:54;5.11;75.81
67586;SHT31;55785;47.946;20.540;2024-03-08T02:19:19;5.11;74.87
67586;SHT31;55785;47.946;20.540;2024-03-08T02:21:45;5.15;75.12
67586;SHT31;55785;47.946;20.540;2024-03-08T02:24:10;5.18;75.05
67586;SHT31;55785;47.946;20.540;2024-03-08T02:26:35;5.17;74.73
67586;SHT31;55785;47.946;20.540;2024-03-08T02:29:01;5.17;75.50
67586;SHT31;55785;47.946;20.540;2024-03-08T02:31:27;5.17;75.73
67586;SHT31;55785;47.946;20.540;2024-03-08T02:33:52;5.17;75.25
67586;SHT31;55785;47.946;20.540;2024-03-08T02:36:17;5.17;74.32
67586;SHT31;55785;47.946;20.540;2024-03-08T02:38:43;5.11;74.30
67586;SHT31;55785;47.946;20.540;2024-03-08T02:41:08;5.10;74.26
67586;SHT31;55785;47.946;20.540;2024-03-08T02:43:34;5.15;75.06
67586;SHT31;55785;47.946;20.540;2024-03-08T02:45:59;5.25;75.11
67586;SHT31;55785;47.946;20.540;2024-03-08T02:48:24;5.36;75.49
67586;SHT31;55785;47.946;20.540;2024-03-08T02:50:50;5.31;75.58
67586;SHT31;55785;47.946;20.540;2024-03-08T02:53:15;5.30;76.10
67586;SHT31;55785;47.946;20.540;2024-03-08T02:55:41;5.21;75.58
67586;SHT31;55785;47.946;20.540;2024-03-08T02:58:07;5.15;75.52
67586;SHT31;55785;47.946;20.540;2024-03-08T03:00:32;5.11;75.51
67586;SHT31;55785;47.946;20.540;2024-03-08T03:02:58;5.03;75.66
67586;SHT31;55785;47.946;20.540;2024-03-08T03:05:24;4.97;76.13
67586;SHT31;55785;47.946;20.540;2024-03-08T03:07:50;4.94;76.38
67586;SHT31;55785;47.946;20.540;2024-03-08T03:10:18;4.97;76.72
67586;SHT31;55785;47.946;20.540;2024-03-08T03:12:45;4.94;76.32
67586;SHT31;55785;47.946;20.540;2024-03-08T03:15:11;4.93;76.19
67586;SHT31;55785;47.946;20.540;2024-03-08T03:17:37;4.91;76.72
67586;SHT31;55785;47.946;20.540;2024-03-08T03:20:05;4.86;76.89
67586;SHT31;55785;47.946;20.540;2024-03-08T03:22:31;4.83;76.68
67586;SHT31;55785;47.946;20.540;2024-03-08T03:24:56;4.91;76.73
67586;SHT31;55785;47.946;20.540;2024-03-08T03:27:21;4.90;76.91
67586;SHT31;55785;47.946;20.540;2024-03-08T03:29:47;4.91;77.11
67586;SHT31;55785;47.946;20.540;2024-03-08T03:32:13;4.86;76.35
67586;SHT31;55785;47.946;20.540;2024-03-08T03:34:39;4.93;76.77
67586;SHT31;55785;47.946;20.540;2024-03-08T03:37:05;4.93;75.92
67586;SHT31;55785;47.946;20.540;2024-03-08T03:39:30;5.00;76.24
67586;SHT31;55785;47.946;20.540;2024-03-08T03:41:56;5.00;75.93
67586;SHT31;55785;47.946;20.540;2024-03-08T03:44:21;5.04;76.18
67586;SHT31;55785;47.946;20.540;2024-03-08T03:46:46;5.00;75.89
67586;SHT31;55785;47.946;20.540;2024-03-08T03:49:12;4.98;76.01
67586;SHT31;55785;47.946;20.540;2024-03-08T03:51:38;5.01;76.18
67586;SHT31;55785;47.946;20.540;2024-03-08T03:54:03;5.05;76.39
67586;SHT31;55785;47.946;20.540;2024-03-08T03:56:29;5.11;77.01
67586;SHT31;55785;47.946;20.540;2024-03-08T03:58:54;5.10;76.51
67586;SHT31;55785;47.946;20.540;2024-03-08T04:01:20;5.07;75.99
67586;SHT31;55785;47.946;20.540;2024-03-08T04:03:45;5.01;75.86
67586;SHT31;55785;47.946;20.540;2024-03-08T04:06:10;4.98;76.30
67586;SHT31;55785;47.946;20.540;2024-03-08T04:08:36;4.97;76.88
67586;SHT31;55785;47.946;20.540;2024-03-08T04:11:01;4.94;77.01
67586;SHT31;55785;47.946;20.540;2024-03-08T04:13:27;4.90;77.27
67586;SHT31;55785;47.946;20.540;2024-03-08T04:15:52;4.87;77.78
67586;SHT31;55785;47.946;20.540;2024-03-08T04:18:17;4.86;77.37
67586;SHT31;55785;47.946;20.540;2024-03-08T04:20:43;4.90;78.49
67586;SHT31;55785;47.946;20.540;2024-03-08T04:23:08;4.93;78.74
67586;SHT31;55785;47.946;20.540;2024-03-08T04:25:33;4.95;79.48
67586;SHT31;55785;47.946;20.540;2024-03-08T04:27:59;4.90;79.17
67586;SHT31;55785;47.946;20.540;2024-03-08T04:30:24;4.91;79.66
67586;SHT31;55785;47.946;20.540;2024-03-08T04:32:50;4.95;80.27
67586;SHT31;55785;47.946;20.540;2024-03-08T04:35:15;5.03;79.40
67586;SHT31;55785;47.946;20.540;2024-03-08T04:37:41;5.05;78.70
67586;SHT31;55785;47.946;20.540;2024-03-08T04:40:08;5.08;79.06
67586;SHT31;55785;47.946;20.540;2024-03-08T04:42:34;5.05;80.58
67586;SHT31;55785;47.946;20.540;2024-03-08T04:45:00;5.01;79.78
67586;SHT31;55785;47.946;20.540;2024-03-08T04:47:25;5.00;80.30
67586;SHT31;55785;47.946;20.540;2024-03-08T04:49:51;4.97;81.06
67586;SHT31;55785;47.946;20.540;2024-03-08T04:52:16;4.90;80.05
67586;SHT31;55785;47.946;20.540;2024-03-08T04:54:43;4.84;80.47
67586;SHT31;55785;47.946;20.540;2024-03-08T04:57:08;4.88;81.71
67586;SHT31;55785;47.946;20.540;2024-03-08T04:59:33;4.87;81.60
67586;SHT31;55785;47.946;20.540;2024-03-08T05:01:59;4.88;82.03
67586;SHT31;55785;47.946;20.540;2024-03-08T05:04:24;4.90;82.76
67586;SHT31;55785;47.946;20.540;2024-03-08T05:06:50;4.86;82.52
67586;SHT31;55785;47.946;20.540;2024-03-08T05:09:15;4.83;80.76
67586;SHT31;55785;47.946;20.540;2024-03-08T05:11:41;4.79;79.91
67586;SHT31;55785;47.946;20.540;2024-03-08T05:14:06;4.86;80.25
67586;SHT31;55785;47.946;20.540;2024-03-08T05:16:32;4.88;80.30
67586;SHT31;55785;47.946;20.540;2024-03-08T05:18:57;4.91;80.36
67586;SHT31;55785;47.946;20.540;2024-03-08T05:21:23;4.94;80.30
67586;SHT31;55785;47.946;20.540;2024-03-08T05:23:48;4.91;80.84
67586;SHT31;55785;47.946;20.540;2024-03-08T05:26:13;4.88;80.21
67586;SHT31;55785;47.946;20.540;2024-03-08T05:28:39;4.91;79.95
67586;SHT31;55785;47.946;20.540;2024-03-08T05:31:04;4.90;79.87
67586;SHT31;55785;47.946;20.540;2024-03-08T05:33:29;4.95;79.79
67586;SHT31;55785;47.946;20.540;2024-03-08T05:35:55;4.95;79.98
67586;SHT31;55785;47.946;20.540;2024-03-08T05:38:20;4.90;80.87
67586;SHT31;55785;47.946;20.540;2024-03-08T05:40:45;4.87;82.93
67586;SHT31;55785;47.946;20.540;2024-03-08T05:43:11;4.93;83.35
67586;SHT31;55785;47.946;20.540;2024-03-08T05:45:36;4.93;83.56
67586;SHT31;55785;47.946;20.540;2024-03-08T05:48:02;4.97;83.62
67586;SHT31;55785;47.946;20.540;2024-03-08T05:50:27;4.98;83.47
67586;SHT31;55785;47.946;20.540;2024-03-08T05:52:52;5.00;83.57
67586;SHT31;55785;47.946;20.540;2024-03-08T05:55:18;5.00;83.36
67586;SHT31;55785;47.946;20.540;2024-03-08T05:57:43;4.98;83.16
67586;SHT31;55785;47.946;20.540;2024-03-08T06:00:09;5.00;82.43
67586;SHT31;55785;47.946;20.540;2024-03-08T06:02:35;5.03;82.19
67586;SHT31;55785;47.946;20.540;2024-03-08T06:05:00;5.03;81.97
67586;SHT31;55785;47.946;20.540;2024-03-08T06:07:25;5.01;81.79
67586;SHT31;55785;47.946;20.540;2024-03-08T06:09:51;5.04;80.89
67586;SHT31;55785;47.946;20.540;2024-03-08T06:12:16;5.07;80.76
67586;SHT31;55785;47.946;20.540;2024-03-08T06:14:41;5.08;80.66
67586;SHT31;55785;47.946;20.540;2024-03-08T06:17:07;5.14;79.64
67586;SHT31;55785;47.946;20.540;2024-03-08T06:19:32;5.13;79.19
67586;SHT31;55785;47.946;20.540;2024-03-08T06:21:57;5.15;79.23
67586;SHT31;55785;47.946;20.540;2024-03-08T06:24:23;5.24;78.69
67586;SHT31;55785;47.946;20.540;2024-03-08T06:26:48;5.21;78.34
67586;SHT31;55785;47.946;20.540;2024-03-08T06:29:13;5.20;77.62
67586;SHT31;55785;47.946;20.540;2024-03-08T06:31:39;5.23;78.43
67586;SHT31;55785;47.946;20.540;2024-03-08T06:34:04;5.28;78.79
67586;SHT31;55785;47.946;20.540;2024-03-08T06:36:30;5.28;77.80
67586;SHT31;55785;47.946;20.540;2024-03-08T06:38:55;5.30;78.66
67586;SHT31;55785;47.946;20.540;2024-03-08T06:41:20;5.34;79.44
67586;SHT31;55785;47.946;20.540;2024-03-08T06:43:47;5.32;80.88
67586;SHT31;55785;47.946;20.540;2024-03-08T06:46:14;5.28;79.56
67586;SHT31;55785;47.946;20.540;2024-03-08T06:48:40;5.28;80.22
67586;SHT31;55785;47.946;20.540;2024-03-08T06:51:05;5.36;80.24
67586;SHT31;55785;47.946;20.540;2024-03-08T06:53:31;5.36;79.60
67586;SHT31;55785;47.946;20.540;2024-03-08T06:56:00;5.42;79.52
67586;SHT31;55785;47.946;20.540;2024-03-08T06:58:26;5.46;79.34
67586;SHT31;55785;47.946;20.540;2024-03-08T07:00:51;5.46;78.96
67586;SHT31;55785;47.946;20.540;2024-03-08T07:03:16;5.48;78.77
67586;SHT31;55785;47.946;20.540;2024-03-08T07:05:42;5.53;79.55
67586;SHT31;55785;47.946;20.540;2024-03-08T07:08:07;5.51;79.89
67586;SHT31;55785;47.946;20.540;2024-03-08T07:10:32;5.48;79.30
67586;SHT31;55785;47.946;20.540;2024-03-08T07:12:58;5.52;78.13
67586;SHT31;55785;47.946;20.540;2024-03-08T07:15:23;5.58;77.47
67586;SHT31;55785;47.946;20.540;2024-03-08T07:17:49;5.49;77.92
67586;SHT31;55785;47.946;20.540;2024-03-08T07:20:15;5.65;78.13
67586;SHT31;55785;47.946;20.540;2024-03-08T07:22:40;5.69;78.19
67586;SHT31;55785;47.946;20.540;2024-03-08T07:25:06;5.69;77.82
67586;SHT31;55785;47.946;20.540;2024-03-08T07:27:31;5.73;77.25
67586;SHT31;55785;47.946;20.540;2024-03-08T07:29:56;5.70;76.77
67586;SHT31;55785;47.946;20.540;2024-03-08T07:32:22;5.76;77.18
67586;SHT31;55785;47.946;20.540;2024-03-08T07:34:48;5.80;77.37
67586;SHT31;55785;47.946;20.540;2024-03-08T07:37:14;5.89;76.94
67586;SHT31;55785;47.946;20.540;2024-03-08T07:39:39;5.87;77.71
67586;SHT31;55785;47.946;20.540;2024-03-08T07:42:05;5.94;77.90
67586;SHT31;55785;47.946;20.540;2024-03-08T07:44:30;5.97;77.33
67586;SHT31;55785;47.946;20.540;2024-03-08T07:46:55;6.04;77.18
67586;SHT31;55785;47.946;20.540;2024-03-08T07:49:21;6.09;77.36
67586;SHT31;55785;47.946;20.540;2024-03-08T07:51:46;6.16;76.81
67586;SHT31;55785;47.946;20.540;2024-03-08T07:54:11;6.21;76.64
67586;SHT31;55785;47.946;20.540;2024-03-08T07:56:37;6.28;75.25
67586;SHT31;55785;47.946;20.540;2024-03-08T07:59:02;6.31;74.26
67586;SHT31;55785;47.946;20.540;2024-03-08T08:01:28;6.40;76.44
67586;SHT31;55785;47.946;20.540;2024-03-08T08:03:53;6.41;75.73
67586;SHT31;55785;47.946;20.540;2024-03-08T08:06:18;6.40;74.90
67586;SHT31;55785;47.946;20.540;2024-03-08T08:08:44;6.48;76.10
67586;SHT31;55785;47.946;20.540;2024-03-08T08:11:10;6.48;74.79
67586;SHT31;55785;47.946;20.540;2024-03-08T08:13:35;6.52;74.28
67586;SHT31;55785;47.946;20.540;2024-03-08T08:16:01;6.61;75.76
67586;SHT31;55785;47.946;20.540;2024-03-08T08:18:26;6.73;75.36
67586;SHT31;55785;47.946;20.540;2024-03-08T08:20:51;6.64;73.36
67586;SHT31;55785;47.946;20.540;2024-03-08T08:23:17;6.49;73.26
67586;SHT31;55785;47.946;20.540;2024-03-08T08:25:42;6.48;75.05
67586;SHT31;55785;47.946;20.540;2024-03-08T08:28:08;6.53;72.86
67586;SHT31;55785;47.946;20.540;2024-03-08T08:30:33;6.53;73.08
67586;SHT31;55785;47.946;20.540;2024-03-08T08:32:59;6.55;73.68
67586;SHT31;55785;47.946;20.540;2024-03-08T08:35:24;6.46;74.60
67586;SHT31;55785;47.946;20.540;2024-03-08T08:37:49;6.45;71.90
67586;SHT31;55785;47.946;20.540;2024-03-08T08:40:15;6.42;70.94
67586;SHT31;55785;47.946;20.540;2024-03-08T08:42:40;6.37;70.35
67586;SHT31;55785;47.946;20.540;2024-03-08T08:45:06;6.38;72.41
67586;SHT31;55785;47.946;20.540;2024-03-08T08:47:32;6.51;72.26
67586;SHT31;55785;47.946;20.540;2024-03-08T08:49:57;6.53;71.92
67586;SHT31;55785;47.946;20.540;2024-03-08T08:52:22;6.45;70.52
67586;SHT31;55785;47.946;20.540;2024-03-08T08:54:48;6.40;70.95
67586;SHT31;55785;47.946;20.540;2024-03-08T08:57:13;6.32;69.45
67586;SHT31;55785;47.946;20.540;2024-03-08T08:59:39;6.30;70.66
67586;SHT31;55785;47.946;20.540;2024-03-08T09:02:04;6.32;69.68
67586;SHT31;55785;47.946;20.540;2024-03-08T09:04:30;6.28;69.75
67586;SHT31;55785;47.946;20.540;2024-03-08T09:06:55;6.34;71.15
67586;SHT31;55785;47.946;20.540;2024-03-08T09:09:20;6.32;70.01
67586;SHT31;55785;47.946;20.540;2024-03-08T09:11:46;6.31;70.10
67586;SHT31;55785;47.946;20.540;2024-03-08T09:14:11;6.28;70.88
67586;SHT31;55785;47.946;20.540;2024-03-08T09:16:36;6.30;72.16
67586;SHT31;55785;47.946;20.540;2024-03-08T09:19:02;6.34;73.90
67586;SHT31;55785;47.946;20.540;2024-03-08T09:21:27;6.28;74.35
67586;SHT31;55785;47.946;20.540;2024-03-08T09:23:53;6.31;71.18
67586;SHT31;55785;47.946;20.540;2024-03-08T09:26:18;6.27;69.77
67586;SHT31;55785;47.946;20.540;2024-03-08T09:28:44;6.28;70.41
67586;SHT31;55785;47.946;20.540;2024-03-08T09:31:09;6.27;70.54
67586;SHT31;55785;47.946;20.540;2024-03-08T09:33:35;6.21;72.08
67586;SHT31;55785;47.946;20.540;2024-03-08T09:36:00;6.27;70.82
67586;SHT31;55785;47.946;20.540;2024-03-08T09:38:25;6.17;70.02
67586;SHT31;55785;47.946;20.540;2024-03-08T09:40:51;6.18;73.03
67586;SHT31;55785;47.946;20.540;2024-03-08T09:43:17;6.25;69.50
67586;SHT31;55785;47.946;20.540;2024-03-08T09:45:43;6.13;69.86
67586;SHT31;55785;47.946;20.540;2024-03-08T09:48:11;6.00;69.99
67586;SHT31;55785;47.946;20.540;2024-03-08T09:50:36;5.93;69.92
67586;SHT31;55785;47.946;20.540;2024-03-08T09:53:02;5.97;70.77
67586;SHT31;55785;47.946;20.540;2024-03-08T09:55:27;5.93;69.95
67586;SHT31;55785;47.946;20.540;2024-03-08T09:57:53;5.99;71.76
67586;SHT31;55785;47.946;20.540;2024-03-08T10:00:19;5.96;71.27
67586;SHT31;55785;47.946;20.540;2024-03-08T10:02:45;6.00;71.44
67586;SHT31;55785;47.946;20.540;2024-03-08T10:05:12;6.04;72.23
67586;SHT31;55785;47.946;20.540;2024-03-08T10:07:37;6.06;71.39
67586;SHT31;55785;47.946;20.540;2024-03-08T10:10:03;6.07;73.34
67586;SHT31;55785;47.946;20.540;2024-03-08T10:12:28;6.16;72.06
67586;SHT31;55785;47.946;20.540;2024-03-08T10:15:00;6.17;71.35
67586;SHT31;55785;47.946;20.540;2024-03-08T10:17:26;6.13;72.27
67586;SHT31;55785;47.946;20.540;2024-03-08T10:19:51;6.18;71.27
67586;SHT31;55785;47.946;20.540;2024-03-08T10:22:18;6.17;72.40
67586;SHT31;55785;47.946;20.540;2024-03-08T10:24:45;6.30;72.40
67586;SHT31;55785;47.946;20.540;2024-03-08T10:27:11;6.32;71.48
67586;SHT31;55785;47.946;20.540;2024-03-08T10:29:36;6.35;70.70
67586;SHT31;55785;47.946;20.540;2024-03-08T10:32:01;6.41;70.97
67586;SHT31;55785;47.946;20.540;2024-03-08T10:34:27;6.41;71.09
67586;SHT31;55785;47.946;20.540;2024-03-08T10:36:52;6.51;72.04
67586;SHT31;55785;47.946;20.540;2024-03-08T10:39:21;6.55;71.41
67586;SHT31;55785;47.946;20.540;2024-03-08T10:41:56;6.48;70.55
67586;SHT31;55785;47.946;20.540;2024-03-08T10:44:33;6.64;72.25
67586;SHT31;55785;47.946;20.540;2024-03-08T10:47:12;6.51;73.75
67586;SHT31;55785;47.946;20.540;2024-03-08T10:49:54;6.37;70.38
67586;SHT31;55785;47.946;20.540;2024-03-08T10:52:20;6.46;71.71
67586;SHT31;55785;47.946;20.540;2024-03-08T10:54:47;6.48;70.74
67586;SHT31;55785;47.946;20.540;2024-03-08T10:57:13;6.59;71.68
67586;SHT31;55785;47.946;20.540;2024-03-08T10:59:40;6.76;70.91
67586;SHT31;55785;47.946;20.540;2024-03-08T11:02:05;6.85;71.59
67586;SHT31;55785;47.946;20.540;2024-03-08T11:04:31;6.90;72.45
67586;SHT31;55785;47.946;20.540;2024-03-08T11:07:01;6.95;70.74
67586;SHT31;55785;47.946;20.540;2024-03-08T11:09:35;7.00;73.13
67586;SHT31;55785;47.946;20.540;2024-03-08T11:12:20;7.16;72.37
67586;SHT31;55785;47.946;20.540;2024-03-08T11:14:47;7.11;73.84
67586;SHT31;55785;47.946;20.540;2024-03-08T11:17:13;7.09;72.28
67586;SHT31;55785;47.946;20.540;2024-03-08T11:19:46;7.16;71.39
67586;SHT31;55785;47.946;20.540;2024-03-08T11:22:21;7.10;71.54
67586;SHT31;55785;47.946;20.540;2024-03-08T11:24:46;7.11;72.86
67586;SHT31;55785;47.946;20.540;2024-03-08T11:27:12;7.13;72.34
67586;SHT31;55785;47.946;20.540;2024-03-08T11:29:38;7.06;70.47
67586;SHT31;55785;47.946;20.540;2024-03-08T11:32:15;7.13;72.82
67586;SHT31;55785;47.946;20.540;2024-03-08T11:34:42;7.10;73.33
67586;SHT31;55785;47.946;20.540;2024-03-08T11:37:18;7.01;71.52
67586;SHT31;55785;47.946;20.540;2024-03-08T11:39:48;7.20;72.28
67586;SHT31;55785;47.946;20.540;2024-03-08T11:42:14;7.26;72.30
67586;SHT31;55785;47.946;20.540;2024-03-08T11:44:39;7.38;72.39
67586;SHT31;55785;47.946;20.540;2024-03-08T11:47:09;7.40;71.20
67586;SHT31;55785;47.946;20.540;2024-03-08T11:49:34;7.44;72.74
67586;SHT31;55785;47.946;20.540;2024-03-08T11:52:00;7.17;72.27
67586;SHT31;55785;47.946;20.540;2024-03-08T11:54:25;7.09;72.72
67586;SHT31;55785;47.946;20.540;2024-03-08T11:56:52;7.16;72.25
67586;SHT31;55785;47.946;20.540;2024-03-08T11:59:17;7.28;72.24
67586;SHT31;55785;47.946;20.540;2024-03-08T12:01:43;7.37;71.93
67586;SHT31;55785;47.946;20.540;2024-03-08T12:04:11;7.47;71.70
67586;SHT31;55785;47.946;20.540;2024-03-08T12:06:38;7.38;71.66
67586;SHT31;55785;47.946;20.540;2024-03-08T12:09:04;7.43;71.47
67586;SHT31;55785;47.946;20.540;2024-03-08T12:11:29;7.35;71.44
67586;SHT31;55785;47.946;20.540;2024-03-08T12:13:55;7.40;71.37
67586;SHT31;55785;47.946;20.540;2024-03-08T12:16:20;7.37;71.28
67586;SHT31;55785;47.946;20.540;2024-03-08T12:18:45;7.35;70.73
67586;SHT31;55785;47.946;20.540;2024-03-08T12:21:12;7.35;71.38
67586;SHT31;55785;47.946;20.540;2024-03-08T12:23:38;7.46;70.72
67586;SHT31;55785;47.946;20.540;2024-03-08T12:26:15;7.47;70.91
67586;SHT31;55785;47.946;20.540;2024-03-08T12:28:40;7.28;69.82
67586;SHT31;55785;47.946;20.540;2024-03-08T12:31:10;7.28;71.61
67586;SHT31;55785;47.946;20.540;2024-03-08T12:33:56;7.35;72.40
67586;SHT31;55785;47.946;20.540;2024-03-08T12:36:22;7.43;71.02
67586;SHT31;55785;47.946;20.540;2024-03-08T12:38:48;7.43;71.55
67586;SHT31;55785;47.946;20.540;2024-03-08T12:41:17;7.24;70.86
67586;SHT31;55785;47.946;20.540;2024-03-08T12:43:43;7.20;71.25
67586;SHT31;55785;47.946;20.540;2024-03-08T12:46:08;7.14;72.18
67586;SHT31;55785;47.946;20.540;2024-03-08T12:48:37;7.11;71.50
67586;SHT31;55785;47.946;20.540;2024-03-08T12:51:02;7.19;73.35
67586;SHT31;55785;47.946;20.540;2024-03-08T12:53:28;7.28;73.05
67586;SHT31;55785;47.946;20.540;2024-03-08T12:55:53;7.31;73.03
67586;SHT31;55785;47.946;20.540;2024-03-08T12:58:19;7.34;72.81
67586;SHT31;55785;47.946;20.540;2024-03-08T13:00:44;7.27;72.34
67586;SHT31;55785;47.946;20.540;2024-03-08T13:03:09;7.27;72.11
67586;SHT31;55785;47.946;20.540;2024-03-08T13:05:35;7.27;72.15
67586;SHT31;55785;47.946;20.540;2024-03-08T13:08:00;7.16;73.26
67586;SHT31;55785;47.946;20.540;2024-03-08T13:10:26;7.10;73.43
67586;SHT31;55785;47.946;20.540;2024-03-08T13:12:51;7.20;72.53
67586;SHT31;55785;47.946;20.540;2024-03-08T13:15:16;7.17;72.91
67586;SHT31;55785;47.946;20.540;2024-03-08T13:17:42;7.34;73.33
67586;SHT31;55785;47.946;20.540;2024-03-08T13:20:08;7.32;73.66
67586;SHT31;55785;47.946;20.540;2024-03-08T13:22:33;7.14;72.94
67586;SHT31;55785;47.946;20.540;2024-03-08T13:24:59;7.14;73.30
67586;SHT31;55785;47.946;20.540;2024-03-08T13:27:24;7.17;74.72
67586;SHT31;55785;47.946;20.540;2024-03-08T13:29:49;7.27;73.65
67586;SHT31;55785;47.946;20.540;2024-03-08T13:32:15;7.21;72.31
67586;SHT31;55785;47.946;20.540;2024-03-08T13:34:45;7.19;73.29
67586;SHT31;55785;47.946;20.540;2024-03-08T13:37:10;7.24;72.60
67586;SHT31;55785;47.946;20.540;2024-03-08T13:39:36;7.23;73.02
67586;SHT31;55785;47.946;20.540;2024-03-08T13:42:01;7.26;73.52
67586;SHT31;55785;47.946;20.540;2024-03-08T13:44:26;7.24;72.86
67586;SHT31;55785;47.946;20.540;2024-03-08T13:46:52;7.26;74.01
67586;SHT31;55785;47.946;20.540;2024-03-08T13:49:17;7.26;74.31
67586;SHT31;55785;47.946;20.540;2024-03-08T13:51:43;7.30;73.50
67586;SHT31;55785;47.946;20.540;2024-03-08T13:54:08;7.48;72.25
67586;SHT31;55785;47.946;20.540;2024-03-08T13:56:33;7.75;71.86
67586;SHT31;55785;47.946;20.540;2024-03-08T13:58:59;7.82;72.32
67586;SHT31;55785;47.946;20.540;2024-03-08T14:01:24;7.82;71.28
67586;SHT31;55785;47.946;20.540;2024-03-08T14:03:49;7.72;73.17
67586;SHT31;55785;47.946;20.540;2024-03-08T14:06:15;7.75;72.74
67586;SHT31;55785;47.946;20.540;2024-03-08T14:08:40;7.64;72.84
67586;SHT31;55785;47.946;20.540;2024-03-08T14:11:06;7.54;73.25
67586;SHT31;55785;47.946;20.540;2024-03-08T14:13:31;7.31;73.28
67586;SHT31;55785;47.946;20.540;2024-03-08T14:15:56;7.27;74.53
67586;SHT31;55785;47.946;20.540;2024-03-08T14:18:22;7.20;73.19
67586;SHT31;55785;47.946;20.540;2024-03-08T14:20:47;7.34;73.58
67586;SHT31;55785;47.946;20.540;2024-03-08T14:23:12;7.32;73.75
67586;SHT31;55785;47.946;20.540;2024-03-08T14:25:38;7.34;74.04
67586;SHT31;55785;47.946;20.540;2024-03-08T14:28:03;7.32;73.72
67586;SHT31;55785;47.946;20.540;2024-03-08T14:30:29;7.23;73.94
67586;SHT31;55785;47.946;20.540;2024-03-08T14:32:54;7.11;74.05
67586;SHT31;55785;47.946;20.540;2024-03-08T14:35:20;6.96;74.61
67586;SHT31;55785;47.946;20.540;2024-03-08T14:37:45;6.90;76.40
67586;SHT31;55785;47.946;20.540;2024-03-08T14:40:10;6.83;75.52
67586;SHT31;55785;47.946;20.540;2024-03-08T14:42:36;6.79;75.84
67586;SHT31;55785;47.946;20.540;2024-03-08T14:45:01;6.76;76.85
67586;SHT31;55785;47.946;20.540;2024-03-08T14:47:26;6.88;77.52
67586;SHT31;55785;47.946;20.540;2024-03-08T14:49:52;6.88;75.52
67586;SHT31;55785;47.946;20.540;2024-03-08T14:52:17;6.80;75.28
67586;SHT31;55785;47.946;20.540;2024-03-08T14:54:42;6.83;76.38
67586;SHT31;55785;47.946;20.540;2024-03-08T14:57:08;6.85;76.54
67586;SHT31;55785;47.946;20.540;2024-03-08T14:59:33;6.86;75.71
67586;SHT31;55785;47.946;20.540;2024-03-08T15:01:58;6.79;76.52
67586;SHT31;55785;47.946;20.540;2024-03-08T15:04:24;6.79;77.05
67586;SHT31;55785;47.946;20.540;2024-03-08T15:06:49;6.80;75.81
67586;SHT31;55785;47.946;20.540;2024-03-08T15:09:14;6.79;76.27
67586;SHT31;55785;47.946;20.540;2024-03-08T15:11:40;6.75;75.67
67586;SHT31;55785;47.946;20.540;2024-03-08T15:14:06;6.76;76.55
67586;SHT31;55785;47.946;20.540;2024-03-08T15:16:31;6.68;76.08
67586;SHT31;55785;47.946;20.540;2024-03-08T15:18:56;6.75;76.23
67586;SHT31;55785;47.946;20.540;2024-03-08T15:21:22;6.73;76.78